createdAt,value
2022-11-28T00:01:20.426Z,100468.97
2022-11-28T00:03:47.943Z,100467.72
2022-11-28T00:06:15.402Z,100473.25
2022-11-28T00:08:43.003Z,100476.78
2022-11-28T00:11:11.492Z,100464.72
2022-11-28T00:13:38.943Z,100477.22
2022-11-28T00:16:06.935Z,100470.75
2022-11-28T00:18:34.550Z,100466.09
2022-11-28T00:21:02.601Z,100474.06
2022-11-28T00:23:30.370Z,100471.56
2022-11-28T00:26:02.027Z,100465.62
2022-11-28T00:28:29.327Z,100462.81
2022-11-28T00:30:56.632Z,100457.87
2022-11-28T00:33:24.204Z,100466.84
2022-11-28T00:35:51.619Z,100462.97
2022-11-28T00:38:18.836Z,100461.44
2022-11-28T00:40:46.366Z,100461.50
2022-11-28T00:43:13.551Z,100468.16
2022-11-28T00:45:41.154Z,100464.34
2022-11-28T00:48:08.645Z,100464.78
2022-11-28T00:50:35.809Z,100469.50
2022-11-28T00:53:03.029Z,100464.37
2022-11-28T00:55:30.499Z,100469.81
2022-11-28T00:57:57.727Z,100475.19
2022-11-28T01:00:24.959Z,100473.34
2022-11-28T01:02:52.502Z,100469.19
2022-11-28T01:05:19.713Z,100473.16
2022-11-28T01:07:47.003Z,100474.56
2022-11-28T01:10:14.517Z,100465.09
2022-11-28T01:12:41.777Z,100470.38
2022-11-28T01:15:09.787Z,100459.38
2022-11-28T01:17:37.321Z,100460.28
2022-11-28T01:20:05.609Z,100451.03
2022-11-28T01:22:32.768Z,100460.50
2022-11-28T01:25:00.253Z,100453.69
2022-11-28T01:27:27.505Z,100452.25
2022-11-28T01:29:54.768Z,100457.19
2022-11-28T01:32:22.217Z,100460.81
2022-11-28T01:34:49.425Z,100455.31
2022-11-28T01:37:16.628Z,100453.44
2022-11-28T01:39:44.107Z,100444.25
2022-11-28T01:42:18.135Z,100448.25
2022-11-28T01:44:48.709Z,100444.63
2022-11-28T01:47:17.068Z,100440.50
2022-11-28T01:49:44.260Z,100434.50
2022-11-28T01:52:13.548Z,100428.06
2022-11-28T01:54:41.092Z,100432.38
2022-11-28T01:57:09.233Z,100439.53
2022-11-28T01:59:37.772Z,100429.38
2022-11-28T02:02:05.571Z,100420.78
2022-11-28T02:04:33.079Z,100417.34
2022-11-28T02:07:00.256Z,100416.00
2022-11-28T02:09:27.483Z,100418.19
2022-11-28T02:12:13.855Z,100402.06
2022-11-28T02:14:41.436Z,100409.13
2022-11-28T02:17:24.513Z,100406.47
2022-11-28T02:19:51.769Z,100408.59
2022-11-28T02:22:28.897Z,100404.72
2022-11-28T02:25:15.845Z,100406.69
2022-11-28T02:27:56.418Z,100402.94
2022-11-28T02:30:42.531Z,100401.44
2022-11-28T02:33:10.116Z,100403.50
2022-11-28T02:35:48.200Z,100398.69
2022-11-28T02:38:24.427Z,100403.66
2022-11-28T02:40:57.773Z,100402.69
2022-11-28T02:43:31.768Z,100399.81
2022-11-28T02:46:02.019Z,100392.25
2022-11-28T02:48:36.482Z,100395.16
2022-11-28T02:51:10.707Z,100388.97
2022-11-28T02:53:38.254Z,100387.34
2022-11-28T02:56:05.589Z,100383.06
2022-11-28T02:58:32.795Z,100381.22
2022-11-28T03:01:00.473Z,100378.38
2022-11-28T03:03:41.746Z,100383.53
2022-11-28T03:06:17.862Z,100381.06
2022-11-28T03:08:48.108Z,100378.53
2022-11-28T03:11:16.505Z,100375.84
2022-11-28T03:13:51.176Z,100367.88
2022-11-28T03:16:23.264Z,100368.41
2022-11-28T03:19:02.982Z,100362.13
2022-11-28T03:21:38.456Z,100362.72
2022-11-28T03:24:20.681Z,100358.72
2022-11-28T03:27:06.258Z,100357.75
2022-11-28T03:29:41.058Z,100357.44
2022-11-28T03:32:10.260Z,100356.88
2022-11-28T03:34:38.512Z,100353.44
2022-11-28T03:37:09.112Z,100348.56
2022-11-28T03:39:38.452Z,100335.31
2022-11-28T03:42:13.365Z,100325.91
2022-11-28T03:44:48.460Z,100327.63
2022-11-28T03:47:15.673Z,100324.78
2022-11-28T03:49:44.452Z,100326.59
2022-11-28T03:52:13.299Z,100318.69
2022-11-28T03:54:42.904Z,100322.37
2022-11-28T03:57:12.109Z,100316.50
2022-11-28T03:59:43.635Z,100316.47
2022-11-28T04:02:14.913Z,100316.09
2022-11-28T04:04:48.424Z,100302.69
2022-11-28T04:07:22.436Z,100307.59
2022-11-28T04:09:51.135Z,100307.34
2022-11-28T04:12:47.743Z,100300.91
2022-11-28T04:15:20.879Z,100299.28
2022-11-28T04:18:10.896Z,100308.22
2022-11-28T04:21:14.155Z,100299.13
2022-11-28T04:23:42.679Z,100295.56
2022-11-28T04:26:29.164Z,100298.75
2022-11-28T04:28:56.780Z,100296.41
2022-11-28T04:31:24.846Z,100300.75
2022-11-28T04:33:53.228Z,100300.63
2022-11-28T04:36:20.455Z,100303.94
2022-11-28T04:38:56.520Z,100291.03
2022-11-28T04:41:28.833Z,100301.50
2022-11-28T04:44:00.795Z,100297.44
2022-11-28T04:46:31.436Z,100300.25
2022-11-28T04:48:58.927Z,100298.34
2022-11-28T04:51:29.215Z,100299.38
2022-11-28T04:54:22.430Z,100300.12
2022-11-28T04:56:52.615Z,100291.37
2022-11-28T04:59:19.806Z,100295.50
2022-11-28T05:01:47.007Z,100290.94
2022-11-28T05:04:14.602Z,100289.91
2022-11-28T05:06:41.769Z,100290.59
2022-11-28T05:09:12.431Z,100294.53
2022-11-28T05:11:40.031Z,100291.06
2022-11-28T05:14:07.291Z,100299.34
2022-11-28T05:16:34.565Z,100304.28
2022-11-28T05:19:02.185Z,100296.06
2022-11-28T05:21:29.414Z,100298.06
2022-11-28T05:23:56.632Z,100298.06
2022-11-28T05:26:24.192Z,100301.50
2022-11-28T05:28:51.648Z,100302.00
2022-11-28T05:31:20.001Z,100307.34
2022-11-28T05:33:47.636Z,100306.19
2022-11-28T05:36:15.410Z,100315.88
2022-11-28T05:38:42.948Z,100315.16
2022-11-28T05:41:10.884Z,100316.94
2022-11-28T05:43:38.041Z,100320.41
2022-11-28T05:46:06.424Z,100322.00
2022-11-28T05:48:33.994Z,100314.50
2022-11-28T05:51:03.471Z,100315.75
2022-11-28T05:53:30.755Z,100323.28
2022-11-28T05:55:58.426Z,100320.28
2022-11-28T05:58:25.681Z,100315.56
2022-11-28T06:00:52.908Z,100319.47
2022-11-28T06:03:20.393Z,100314.97
2022-11-28T06:05:48.308Z,100311.44
2022-11-28T06:08:16.043Z,100324.66
2022-11-28T06:10:43.520Z,100314.75
2022-11-28T06:13:10.762Z,100331.81
2022-11-28T06:15:38.721Z,100326.47
2022-11-28T06:18:06.273Z,100333.09
2022-11-28T06:20:34.846Z,100326.44
2022-11-28T06:23:01.998Z,100332.59
2022-11-28T06:25:29.561Z,100328.72
2022-11-28T06:27:56.774Z,100330.47
2022-11-28T06:30:23.993Z,100331.53
2022-11-28T06:32:51.450Z,100325.22
2022-11-28T06:35:18.616Z,100317.47
2022-11-28T06:37:45.891Z,100326.44
2022-11-28T06:40:13.771Z,100324.16
2022-11-28T06:42:40.993Z,100325.31
2022-11-28T06:45:09.272Z,100330.56
2022-11-28T06:47:36.738Z,100329.75
2022-11-28T06:50:04.037Z,100327.25
2022-11-28T06:52:31.254Z,100323.69
2022-11-28T06:54:58.740Z,100327.53
2022-11-28T06:57:26.043Z,100323.62
2022-11-28T06:59:53.265Z,100333.69
2022-11-28T07:02:20.787Z,100332.50
2022-11-28T07:04:48.063Z,100326.88
2022-11-28T07:07:16.775Z,100324.84
2022-11-28T07:09:44.772Z,100340.72
2022-11-28T07:12:12.228Z,100333.72
2022-11-28T07:14:39.439Z,100325.06
2022-11-28T07:17:07.017Z,100322.47
2022-11-28T07:19:34.517Z,100323.56
2022-11-28T07:22:01.756Z,100334.75
2022-11-28T07:24:30.170Z,100332.91
2022-11-28T07:26:57.395Z,100339.41
2022-11-28T07:29:24.715Z,100339.56
2022-11-28T07:31:52.227Z,100336.44
2022-11-28T07:34:19.446Z,100335.66
2022-11-28T07:36:46.628Z,100332.56
2022-11-28T07:39:17.612Z,100334.59
2022-11-28T07:41:44.942Z,100329.66
2022-11-28T07:44:13.097Z,100327.97
2022-11-28T07:46:40.704Z,100330.31
2022-11-28T07:49:07.964Z,100325.88
2022-11-28T07:51:35.189Z,100319.03
2022-11-28T07:54:03.313Z,100306.13
2022-11-28T07:56:57.131Z,100312.28
2022-11-28T07:59:19.327Z,100306.56
2022-11-28T08:01:46.552Z,100311.22
2022-11-28T08:04:14.193Z,100312.72
2022-11-28T08:06:41.878Z,100307.75
2022-11-28T08:09:09.207Z,100312.13
2022-11-28T08:11:36.730Z,100322.03
2022-11-28T08:14:04.447Z,100315.25
2022-11-28T08:16:31.854Z,100315.50
2022-11-28T08:19:02.752Z,100320.22
2022-11-28T08:21:31.027Z,100322.00
2022-11-28T08:23:59.288Z,100325.47
2022-11-28T08:26:30.389Z,100322.56
2022-11-28T08:28:58.731Z,100325.59
2022-11-28T08:31:27.190Z,100333.50
2022-11-28T08:33:55.871Z,100327.69
2022-11-28T08:36:23.108Z,100331.78
2022-11-28T08:39:03.325Z,100338.84
2022-11-28T08:41:37.286Z,100344.31
2022-11-28T08:44:04.681Z,100341.69
2022-11-28T08:46:32.620Z,100341.28
2022-11-28T08:49:04.251Z,100336.59
2022-11-28T08:51:31.911Z,100339.06
2022-11-28T08:54:00.054Z,100336.38
2022-11-28T08:56:27.800Z,100332.50
2022-11-28T08:58:55.119Z,100333.84
2022-11-28T09:01:23.656Z,100330.41
2022-11-28T09:03:51.169Z,100329.84
2022-11-28T09:06:18.576Z,100324.03
2022-11-28T09:08:46.107Z,100325.47
2022-11-28T09:11:14.654Z,100329.13
2022-11-28T09:13:41.849Z,100326.44
2022-11-28T09:16:09.484Z,100318.06
2022-11-28T09:18:36.654Z,100318.34
2022-11-28T09:21:04.992Z,100325.47
2022-11-28T09:23:32.442Z,100318.50
2022-11-28T09:25:59.710Z,100318.06
2022-11-28T09:28:28.885Z,100317.12
2022-11-28T09:30:59.816Z,100318.41
2022-11-28T09:33:27.136Z,100322.72
2022-11-28T09:35:55.535Z,100319.56
2022-11-28T09:38:23.072Z,100316.41
2022-11-28T09:40:50.389Z,100313.66
2022-11-28T09:43:23.978Z,100310.22
2022-11-28T09:45:51.441Z,100303.84
2022-11-28T09:48:26.533Z,100294.63
2022-11-28T09:50:55.598Z,100288.97
2022-11-28T09:53:43.099Z,100288.06
2022-11-28T09:56:14.810Z,100280.44
2022-11-28T09:58:52.132Z,100271.97
2022-11-28T10:01:26.168Z,100278.28
2022-11-28T10:04:12.667Z,100270.66
2022-11-28T10:06:45.910Z,100277.00
2022-11-28T10:09:16.188Z,100264.59
2022-11-28T10:11:43.452Z,100271.19
2022-11-28T10:14:10.655Z,100276.56
2022-11-28T10:16:46.848Z,100266.97
2022-11-28T10:19:25.721Z,100271.09
2022-11-28T10:22:03.075Z,100265.91
2022-11-28T10:24:41.551Z,100267.41
2022-11-28T10:27:09.798Z,100272.25
2022-11-28T10:29:49.115Z,100264.47
2022-11-28T10:32:17.298Z,100264.78
2022-11-28T10:34:50.305Z,100253.72
2022-11-28T10:37:19.957Z,100250.09
2022-11-28T10:39:47.120Z,100262.50
2022-11-28T10:42:32.517Z,100248.00
2022-11-28T10:45:03.810Z,100249.66
2022-11-28T10:47:49.615Z,100242.47
2022-11-28T10:50:21.729Z,100242.16
2022-11-28T10:52:51.861Z,100241.66
2022-11-28T10:55:26.119Z,100231.41
2022-11-28T10:58:02.552Z,100222.50
2022-11-28T11:00:29.986Z,100220.91
2022-11-28T11:02:57.874Z,100219.19
2022-11-28T11:05:26.986Z,100220.41
2022-11-28T11:07:55.859Z,100220.56
2022-11-28T11:10:24.173Z,100214.25
2022-11-28T11:12:52.661Z,100210.25
2022-11-28T11:15:20.213Z,100213.97
2022-11-28T11:17:47.486Z,100223.75
2022-11-28T11:20:35.074Z,100221.53
2022-11-28T11:23:10.403Z,100216.50
2022-11-28T11:25:37.799Z,100217.00
2022-11-28T11:28:05.244Z,100221.66
2022-11-28T11:30:38.628Z,100214.81
2022-11-28T11:33:07.262Z,100216.06
2022-11-28T11:35:35.153Z,100215.25
2022-11-28T11:38:17.835Z,100215.56
2022-11-28T11:40:45.329Z,100209.03
2022-11-28T11:43:24.825Z,100201.66
2022-11-28T11:46:21.763Z,100207.03
2022-11-28T11:48:50.600Z,100209.66
2022-11-28T11:51:28.116Z,100210.44
2022-11-28T11:54:05.255Z,100203.13
2022-11-28T11:56:36.336Z,100209.16
2022-11-28T11:59:05.395Z,100194.84
2022-11-28T12:01:33.134Z,100190.59
2022-11-28T12:04:17.891Z,100190.91
2022-11-28T12:06:53.966Z,100181.34
2022-11-28T12:09:26.546Z,100183.97
2022-11-28T12:12:06.631Z,100187.25
2022-11-28T12:14:34.826Z,100178.91
2022-11-28T12:17:32.550Z,100181.38
2022-11-28T12:20:28.210Z,100181.56
2022-11-28T12:23:15.816Z,100171.56
2022-11-28T12:25:53.589Z,100177.19
2022-11-28T12:28:41.025Z,100167.00
2022-11-28T12:31:20.511Z,100175.75
2022-11-28T12:33:52.282Z,100170.53
2022-11-28T12:36:23.860Z,100160.75
2022-11-28T12:38:57.373Z,100160.06
2022-11-28T12:41:33.679Z,100168.03
2022-11-28T12:44:03.931Z,100162.97
2022-11-28T12:46:51.655Z,100154.72
2022-11-28T12:49:18.849Z,100157.53
2022-11-28T12:51:50.311Z,100157.97
2022-11-28T12:54:17.468Z,100164.28
2022-11-28T12:56:54.660Z,100149.09
2022-11-28T12:59:37.540Z,100147.69
2022-11-28T13:02:16.154Z,100152.53
2022-11-28T13:05:02.747Z,100142.37
2022-11-28T13:07:48.978Z,100141.87
2022-11-28T13:10:34.862Z,100148.09
2022-11-28T13:13:10.715Z,100147.72
2022-11-28T13:15:41.292Z,100150.06
2022-11-28T13:18:22.408Z,100146.28
2022-11-28T13:20:53.950Z,100141.50
2022-11-28T13:23:25.536Z,100133.41
2022-11-28T13:26:04.720Z,100142.97
2022-11-28T13:28:38.007Z,100135.19
2022-11-28T13:31:25.247Z,100141.56
2022-11-28T13:33:53.448Z,100135.72
2022-11-28T13:39:17.102Z,100137.44
2022-11-28T13:42:43.913Z,100131.50
2022-11-28T13:44:59.750Z,100131.97
2022-11-28T13:47:29.362Z,100125.37
2022-11-28T13:50:16.785Z,100133.56
2022-11-28T13:52:44.329Z,100125.25
2022-11-28T13:55:30.379Z,100118.84
2022-11-28T13:57:57.918Z,100123.09
2022-11-28T14:00:25.353Z,100126.16
2022-11-28T14:02:53.905Z,100124.47
2022-11-28T14:05:34.506Z,100115.84
2022-11-28T14:08:02.153Z,100113.50
2022-11-28T14:10:29.443Z,100119.16
2022-11-28T14:13:02.617Z,100117.47
2022-11-28T14:15:37.057Z,100112.66
2022-11-28T14:18:31.519Z,100119.09
2022-11-28T14:21:18.355Z,100110.03
2022-11-28T14:23:47.936Z,100115.78
2022-11-28T14:26:32.131Z,100117.81
2022-11-28T14:28:59.470Z,100115.97
2022-11-28T14:31:31.446Z,100107.69
2022-11-28T14:34:03.643Z,100112.59
2022-11-28T14:36:33.947Z,100104.19
2022-11-28T14:39:24.800Z,100108.69
2022-11-28T14:42:04.404Z,100107.75
2022-11-28T14:44:47.412Z,100112.78
2022-11-28T14:47:21.427Z,100119.16
2022-11-28T14:49:48.792Z,100117.03
2022-11-28T14:52:37.774Z,100109.72
2022-11-28T14:55:04.013Z,100118.81
2022-11-28T14:57:36.103Z,100105.06
2022-11-28T15:00:08.168Z,100104.84
2022-11-28T15:02:52.886Z,100106.19
2022-11-28T15:05:31.183Z,100113.28
2022-11-28T15:08:11.018Z,100109.53
2022-11-28T15:11:01.101Z,100103.94
2022-11-28T15:13:33.140Z,100122.28
2022-11-28T15:16:00.468Z,100117.50
2022-11-28T15:18:28.459Z,100104.91
2022-11-28T15:21:03.304Z,100118.78
2022-11-28T15:23:32.475Z,100110.25
2022-11-28T15:26:00.223Z,100120.59
2022-11-28T15:28:28.928Z,100116.06
2022-11-28T15:30:56.964Z,100118.00
2022-11-28T15:33:25.337Z,100106.56
2022-11-28T15:36:03.170Z,100118.34
2022-11-28T15:38:30.810Z,100122.31
2022-11-28T15:40:58.201Z,100120.91
2022-11-28T15:43:25.661Z,100115.94
2022-11-28T15:45:54.446Z,100127.41
2022-11-28T15:48:39.039Z,100130.97
2022-11-28T15:51:07.948Z,100127.38
2022-11-28T15:53:40.053Z,100128.44
2022-11-28T15:56:11.476Z,100127.19
2022-11-28T15:58:39.126Z,100125.16
2022-11-28T16:01:14.588Z,100132.09
2022-11-28T16:03:48.295Z,100135.34
2022-11-28T16:06:16.520Z,100137.66
2022-11-28T16:08:54.518Z,100132.37
2022-11-28T16:11:22.751Z,100141.09
2022-11-28T16:13:50.665Z,100137.97
2022-11-28T16:16:18.708Z,100140.34
2022-11-28T16:18:46.964Z,100137.41
2022-11-28T16:21:14.766Z,100138.75
2022-11-28T16:23:42.176Z,100143.03
2022-11-28T16:26:18.625Z,100141.38
2022-11-28T16:28:55.884Z,100142.25
2022-11-28T16:31:24.962Z,100132.81
2022-11-28T16:33:52.800Z,100137.03
2022-11-28T16:36:20.058Z,100127.53
2022-11-28T16:38:48.245Z,100130.06
2022-11-28T16:41:15.902Z,100129.72
2022-11-28T16:43:45.678Z,100129.88
2022-11-28T16:46:20.375Z,100134.50
2022-11-28T16:48:49.183Z,100131.16
2022-11-28T16:51:16.570Z,100134.91
2022-11-28T16:53:55.191Z,100138.59
2022-11-28T16:56:31.950Z,100128.91
2022-11-28T16:59:03.620Z,100134.12
2022-11-28T17:01:31.256Z,100139.53
2022-11-28T17:03:59.062Z,100140.91
2022-11-28T17:06:27.310Z,100143.03
2022-11-28T17:08:55.580Z,100145.97
2022-11-28T17:11:23.460Z,100146.50
2022-11-28T17:13:51.726Z,100153.09
2022-11-28T17:16:20.894Z,100138.69
2022-11-28T17:18:48.344Z,100133.81
2022-11-28T17:21:16.137Z,100145.19
2022-11-28T17:23:43.680Z,100132.84
2022-11-28T17:26:10.903Z,100145.72
2022-11-28T17:28:38.320Z,100132.44
2022-11-28T17:31:06.013Z,100136.81
2022-11-28T17:33:33.308Z,100136.16
2022-11-28T17:36:00.520Z,100144.66
2022-11-28T17:38:29.927Z,100143.53
2022-11-28T17:40:57.763Z,100138.53
2022-11-28T17:43:24.987Z,100140.56
2022-11-28T17:45:52.572Z,100146.75
2022-11-28T17:48:20.006Z,100141.84
2022-11-28T17:50:49.664Z,100154.81
2022-11-28T17:53:18.417Z,100149.50
2022-11-28T17:55:47.119Z,100146.16
2022-11-28T17:58:17.372Z,100148.41
2022-11-28T18:00:48.316Z,100146.41
2022-11-28T18:03:16.203Z,100147.31
2022-11-28T18:05:45.634Z,100144.56
2022-11-28T18:08:17.920Z,100152.75
2022-11-28T18:10:48.579Z,100162.37
2022-11-28T18:13:17.519Z,100149.81
2022-11-28T18:15:46.037Z,100155.19
2022-11-28T18:18:13.840Z,100163.63
2022-11-28T18:20:41.155Z,100154.25
2022-11-28T18:23:09.750Z,100147.69
2022-11-28T18:25:40.517Z,100156.47
2022-11-28T18:28:07.921Z,100157.56
2022-11-28T18:30:35.184Z,100154.09
2022-11-28T18:33:02.641Z,100154.22
2022-11-28T18:35:30.618Z,100161.66
2022-11-28T18:37:58.099Z,100151.41
2022-11-28T18:40:25.743Z,100156.56
2022-11-28T18:42:53.247Z,100158.53
2022-11-28T18:45:21.044Z,100159.72
2022-11-28T18:47:48.660Z,100164.06
2022-11-28T18:50:16.038Z,100162.25
2022-11-28T18:52:43.396Z,100148.28
2022-11-28T18:55:10.870Z,100146.53
2022-11-28T18:57:38.475Z,100153.34
2022-11-28T19:00:06.282Z,100147.47
2022-11-28T19:02:33.806Z,100148.94
2022-11-28T19:05:01.123Z,100150.19
2022-11-28T19:07:28.418Z,100147.19
2022-11-28T19:09:55.977Z,100144.19
2022-11-28T19:12:23.460Z,100148.69
2022-11-28T19:14:51.777Z,100138.72
2022-11-28T19:17:19.558Z,100144.00
2022-11-28T19:19:47.359Z,100146.59
2022-11-28T19:22:14.994Z,100145.84
2022-11-28T19:24:42.822Z,100150.88
2022-11-28T19:27:14.242Z,100155.59
2022-11-28T19:29:42.495Z,100154.22
2022-11-28T19:32:10.404Z,100156.56
2022-11-28T19:34:37.885Z,100155.75
2022-11-28T19:37:05.253Z,100156.97
2022-11-28T19:39:32.993Z,100156.94
2022-11-28T19:42:04.009Z,100159.22
2022-11-28T19:44:31.698Z,100162.75
2022-11-28T19:47:00.987Z,100159.50
2022-11-28T19:49:29.295Z,100156.38
2022-11-28T19:51:56.998Z,100164.03
2022-11-28T19:54:25.476Z,100154.06
2022-11-28T19:56:53.576Z,100152.66
2022-11-28T19:59:20.884Z,100153.72
2022-11-28T20:01:50.066Z,100152.37
2022-11-28T20:04:17.988Z,100154.84
2022-11-28T20:06:45.540Z,100152.56
2022-11-28T20:09:13.866Z,100161.78
2022-11-28T20:11:41.814Z,100154.75
2022-11-28T20:14:12.916Z,100157.41
2022-11-28T20:16:40.894Z,100154.28
2022-11-28T20:19:10.289Z,100155.78
2022-11-28T20:21:37.742Z,100146.75
2022-11-28T20:24:07.400Z,100155.25
2022-11-28T20:26:39.068Z,100154.63
2022-11-28T20:29:06.872Z,100157.91
2022-11-28T20:31:35.655Z,100158.87
2022-11-28T20:34:04.781Z,100157.50
2022-11-28T20:36:32.725Z,100159.47
2022-11-28T20:39:00.348Z,100164.03
2022-11-28T20:41:28.105Z,100159.53
2022-11-28T20:43:55.408Z,100170.16
2022-11-28T20:46:23.745Z,100159.97
2022-11-28T20:48:51.276Z,100160.03
2022-11-28T20:51:20.665Z,100157.88
2022-11-28T20:53:48.609Z,100154.97
2022-11-28T20:56:17.682Z,100153.66
2022-11-28T20:58:45.365Z,100154.81
2022-11-28T21:01:17.132Z,100155.91
2022-11-28T21:03:44.716Z,100154.88
2022-11-28T21:06:12.142Z,100160.62
2022-11-28T21:08:39.394Z,100162.19
2022-11-28T21:11:07.666Z,100167.25
2022-11-28T21:13:34.999Z,100156.63
2022-11-28T21:16:09.554Z,100169.72
2022-11-28T21:18:37.987Z,100163.25
2022-11-28T21:21:15.565Z,100168.28
2022-11-28T21:23:43.488Z,100163.00
2022-11-28T21:26:14.918Z,100169.28
2022-11-28T21:28:42.997Z,100172.00
2022-11-28T21:31:14.348Z,100170.16
2022-11-28T21:33:41.615Z,100166.09
2022-11-28T21:36:09.430Z,100164.66
2022-11-28T21:38:36.605Z,100169.53
2022-11-28T21:41:03.874Z,100168.16
2022-11-28T21:43:32.128Z,100163.88
2022-11-28T21:46:03.559Z,100159.63
2022-11-28T21:48:31.142Z,100166.47
2022-11-28T21:50:58.953Z,100162.22
2022-11-28T21:53:26.409Z,100167.69
2022-11-28T21:55:55.296Z,100168.12
2022-11-28T21:58:26.670Z,100170.81
2022-11-28T22:00:58.419Z,100168.12
2022-11-28T22:03:26.835Z,100169.59
2022-11-28T22:06:04.573Z,100167.75
2022-11-28T22:08:33.696Z,100162.03
2022-11-28T22:11:04.876Z,100163.53
2022-11-28T22:13:32.961Z,100158.84
2022-11-28T22:16:00.327Z,100153.91
2022-11-28T22:18:31.143Z,100159.19
2022-11-28T22:21:06.542Z,100168.50
2022-11-28T22:23:39.441Z,100166.00
2022-11-28T22:26:07.082Z,100157.44
2022-11-28T22:28:35.587Z,100163.16
2022-11-28T22:31:06.777Z,100157.38
2022-11-28T22:33:34.875Z,100157.97
2022-11-28T22:36:10.807Z,100159.97
2022-11-28T22:38:38.719Z,100159.06
2022-11-28T22:41:07.352Z,100154.34
2022-11-28T22:43:34.772Z,100153.06
2022-11-28T22:46:02.595Z,100154.41
2022-11-28T22:48:30.618Z,100153.47
2022-11-28T22:50:58.173Z,100156.38
2022-11-28T22:53:25.803Z,100154.88
2022-11-28T22:55:52.997Z,100153.13
2022-11-28T22:58:20.429Z,100158.78
2022-11-28T23:00:47.986Z,100163.28
2022-11-28T23:03:15.528Z,100162.78
2022-11-28T23:05:47.885Z,100160.81
2022-11-28T23:08:17.857Z,100162.72
2022-11-28T23:10:45.082Z,100169.66
2022-11-28T23:13:12.306Z,100161.16
2022-11-28T23:15:43.653Z,100156.78
2022-11-28T23:18:13.424Z,100161.75
2022-11-28T23:20:41.435Z,100153.00
2022-11-28T23:23:08.653Z,100155.81
2022-11-28T23:25:36.083Z,100165.63
2022-11-28T23:28:03.582Z,100157.56
2022-11-28T23:30:30.796Z,100161.34
2022-11-28T23:32:58.049Z,100164.31
2022-11-28T23:35:25.602Z,100163.19
2022-11-28T23:37:52.808Z,100165.31
2022-11-28T23:40:19.962Z,100164.56
2022-11-28T23:42:47.508Z,100169.19
2022-11-28T23:45:14.734Z,100157.81
2022-11-28T23:47:41.932Z,100155.72
2022-11-28T23:50:09.733Z,100154.75
2022-11-28T23:52:36.891Z,100150.09
2022-11-28T23:55:04.321Z,100143.19
2022-11-28T23:57:31.818Z,100139.38
